Impacts TAF Board
For situational awareness. Not to be used for flight planning purposes.
IDs:

KBFD - Bradford Rgnl, PA, US

Issued at 2120 UTC 21 May 2022
Updated at 2313 UTC 21 May 2022
Potential Impact None Slight Moderate High
Time<<23/00Z 23/01Z 23/02Z 23/03Z 23/04Z 23/05Z 23/06Z 23/07Z 23/08Z 23/09Z 23/10Z 23/11Z 23/12Z
Type
VIS
CIG
Cover
FltCat
WX
WDir
WSpd
WGst
WSHgt
WSDir
WSSpd
Raw TAF
KBFD 212120Z 2121/2218 20009G16KT P6SM SCT050
  FM212300 19006KT P6SM VCTS BKN040CB
  FM220400 VRB03KT P6SM VCSH BKN040
  FM220800 VRB02KT 6SM BR SCT003
  FM221500 26008G15KT P6SM VCSH OVC035


METAR Board
Radar Display
Forecast Discussion
For situational awareness. Not to be used for flight planning purposes.